LFRTLFRO

Guest
Details From LFRT - Saint Brieuc Armor
To LFRO - Lannion
Flight Number -
Tags generated
Created
Modified
Stats Distance 28 nm / 52 km
Max Altitude 1,400 ft / 427 m
Waypoints 3
Social Downloads 2
Likes 0
Share VATSIM

Download

Looking for another format? Having issues loading an existing format? Contact us
Advertisement - Login to hide

Notes

Basic altitude profile: - Ascent Rate: 2500ft/min - Ascent Speed: 250kts - Cruise Altitude: 35000ft - Cruise Speed: 420kts - Descent Rate: 1500ft/min - Descent Speed: 250kts

Route

LFRT LN LFRO

ID Type Via Altitude Latitude Longitude Leg Dist Tot Dist Heading (true) Name
O LFRT APT - 0 ft / 0 m 48.53827˚ -2.85461˚ - 0 nm - Saint Brieuc Armor
LN NDB - 1,400 ft / 427 m 48.71928˚ -3.30778˚ 21 nm 21 nm 301° / 301° LANNION NDB
O LFRO APT - 0 ft / 0 m 48.75431˚ -3.47175˚ 6 nm 27 nm 288° / 288° Lannion

Altitude Profile

Advertisement - Login to hide

LFRT

Details ICAO LFRT (SBK)
Name Saint Brieuc Armor
Region France
Timezone Europe/Paris (UTC+2.0)
Stats Elevation 452 ft / 138 m (AMSL)
Location 48.538265° -2.854612°
Runways 1
Magnetic Variation 0.991° W

METAR

LFRT 230730Z AUTO 04008KT CAVOK 15/12 Q1021

Decode

TAF

Not found

Departure Runways

ID Width Length Bearing (true) Bearing (mag) Surface Threshold Offset Overrun Length
06 148 ft / 45 m 7,214 ft / 2,199 m 58.77° 59.76° Asphalt 0 ft / 0 m 0 ft / 0 m
24 148 ft / 45 m 7,214 ft / 2,199 m 238.79° 239.78° Asphalt 0 ft / 0 m 0 ft / 0 m

LFRO

Details ICAO LFRO (LAI)
Name Lannion
Region France
Timezone Europe/Paris (UTC+2.0)
Stats Elevation 291 ft / 89 m (AMSL)
Location 48.754309° -3.471747°
Runways 1
Magnetic Variation 1.224° W

METAR

LFRO 230730Z AUTO 04004KT 350V160 8000 NSC 15/13 Q1021 NOSIG

Decode

TAF

TAF LFRO 230500Z 2306/2406 03003KT CAVOK TEMPO 2306/2307 4000 MIFG TEMPO 2310/2318 04010G20KT BECMG 2400/2403 3000 MIFG PROB30 TEMPO 2403/2406 0800 FG BKN003

Decode

Destination Runways

ID Width Length Bearing (true) Bearing (mag) Surface Threshold Offset Overrun Length
11 148 ft / 45 m 5,547 ft / 1,691 m 107.61° 108.83° Asphalt 755 ft / 230 m 0 ft / 0 m
29 148 ft / 45 m 5,547 ft / 1,691 m 287.62° 288.84° Asphalt 591 ft / 180 m 0 ft / 0 m

Approach Navaids

Runway Type Ident Frequency Range Bearing (true) Bearing (mag) Slope Elevation
11 Glidescope LN 109.50 MHz 10 nm / 19 km 107.61° 108.84° 3.00° 292 ft / 89 m (AMSL)
29 Localiser LN 110.35 MHz 18 nm / 33 km 287.64° 288.86° - 291 ft / 89 m (AMSL)
29 Glidescope LN 110.35 MHz 10 nm / 19 km 287.61° 288.84° 3.00° 291 ft / 89 m (AMSL)
29 DME LN 110.35 MHz 18 nm / 33 km - - - 291 ft / 89 m (AMSL)

Popular Alternatives